Hatsu Envoy — VSQL9 — position and weather

sailwx.info

Track history (hours):
 
Tides and Currents Weather Stations Pressure Air Temp Water Temp Dewpoint Dewpoint Depression Visibility Wind Speed Wind Dir Waves Ship Positions

Hatsu Envoy

Last reported at 2016-Feb-02 18:28 UTC. Time now 2016-Feb-10 17:50 UTC.
Position N 29°41' E 122°35'.

Type: Cargo ship. MMSI: 235414000.

Date/timePositionNaut miles runAvg speedWind from/ knotsBaromVisibWave heightAir tempDewpointWater temp
2016-Feb-02 18:28N 29°41' E 122°35'1111.5
2016-Feb-02 17:30N 29°43' E 122°23'1111.9
2016-Feb-02 16:33N 29°50' E 122°13'9 0.5
2016-Feb-01 23:28N 29°53' E 122°03'0 0.5
2016-Feb-01 22:33N 29°54' E 122°03'3 3.4
2016-Feb-01 21:33N 29°55' E 122°07'1211.7
2016-Feb-01 20:33N 29°47' E 122°16'9 8.5
2016-Feb-01 19:33N 29°44' E 122°26'5 4.5
2016-Feb-01 18:32N 29°43' E 122°31'0 0.3
2016-Feb-01 17:33N 29°43' E 122°31'1 1.4
2016-Feb-01 16:31N 29°42' E 122°31'7 1.2
2016-Feb-01 10:18N 29°44' E 122°39'0 0.5
2016-Feb-01 09:31N 29°44' E 122°39'5810.7
2016-Feb-01 04:06N 30°39' E 122°57'66 3.7
2016-Jan-31 10:10N 31°16' E 121°52'914.4
2016-Jan-31 09:32N 31°19' E 121°42'7 7.2
2016-Jan-31 08:33N 31°22' E 121°35'0 0.0
2016-Jan-31 07:28N 31°22' E 121°35'0 0.0
2016-Jan-31 06:31N 31°22' E 121°35'0 0.0
2016-Jan-31 05:31N 31°22' E 121°35'0 0.1
2016-Jan-31 04:28N 31°22' E 121°35'0 0.1
2016-Jan-31 03:28N 31°22' E 121°35'0 0.0
2016-Jan-31 02:28N 31°22' E 121°35'0 0.0
2016-Jan-31 01:25N 31°22' E 121°35'0 0.0
2016-Jan-31 00:31N 31°22' E 121°35'0 0.0
2016-Jan-30 23:31N 31°22' E 121°35'0 0.0
2016-Jan-30 22:22N 31°22' E 121°35'0 0.4
2016-Jan-30 21:33N 31°23' E 121°35'1 0.6
2016-Jan-30 20:33N 31°23' E 121°35'6 5.5
2016-Jan-30 19:34N 31°20' E 121°41'9 9.2
2016-Jan-30 18:33N 31°17' E 121°51'1110.5
2016-Jan-30 17:31N 31°14' E 122°03'  
2016-Jan-27 01:33N 22°47' E 119°60'1313.3
2016-Jan-27 00:33N 22°35' E 120°07'1111.3
2016-Jan-26 23:33N 22°33' E 120°19'0 0.2
2016-Jan-26 22:29N 22°33' E 120°19'0 0.0
2016-Jan-26 20:05N 22°33' E 120°19'0 0.0
2016-Jan-26 19:29N 22°33' E 120°19'0 0.0
2016-Jan-26 18:29N 22°33' E 120°19'0 0.0
2016-Jan-26 16:26N 22°33' E 120°19'0 0.0
2016-Jan-26 15:26N 22°33' E 120°19'0 0.0
2016-Jan-26 14:32N 22°33' E 120°19'0 0.0
2016-Jan-26 13:20N 22°33' E 120°19'0 0.0
2016-Jan-26 12:32N 22°33' E 120°19'0 0.0
2016-Jan-26 11:32N 22°33' E 120°19'0 0.0
2016-Jan-26 10:32N 22°33' E 120°19'0 0.2
2016-Jan-26 09:33N 22°33' E 120°19'6 6.5
2016-Jan-26 08:33N 22°31' E 120°12'1413.7
2016-Jan-26 07:34N 22°30' E 119°58'31514.7
2016-Jan-25 10:05N 22°34' E 114°16'0 0.0
2016-Jan-25 09:23N 22°34' E 114°16'0 0.0
2016-Jan-25 08:29N 22°34' E 114°16'0 0.0
2016-Jan-25 06:23N 22°34' E 114°16'0 0.0
2016-Jan-25 04:33N 22°34' E 114°16'0 0.0
2016-Jan-25 03:33N 22°34' E 114°16'0 0.0
2016-Jan-25 02:34N 22°34' E 114°16'0 0.0
2016-Jan-24 19:33N 22°34' E 114°16'0 0.0
2016-Jan-24 18:33N 22°34' E 114°16'0 0.0
2016-Jan-24 17:33N 22°34' E 114°16'0 0.0
2016-Jan-24 16:33N 22°34' E 114°16'1 0.5
2016-Jan-24 15:33N 22°34' E 114°17'14 6.0
2016-Jan-24 13:16N 22°26' E 114°29'14 1.4
2016-Jan-24 02:33N 22°12' E 114°28'10 9.6
2016-Jan-24 01:33N 22°06' E 114°20'11 9.2
2016-Jan-24 00:21N 22°12' E 114°10'8 9.5
2016-Jan-23 23:34N 22°18' E 114°06'2 2.3
2016-Jan-23 22:30N 22°20' E 114°08'0 0.0
2016-Jan-23 21:30N 22°20' E 114°08'0 0.0
2016-Jan-23 20:33N 22°20' E 114°08'0 0.0
2016-Jan-23 19:30N 22°20' E 114°08'0 0.0
2016-Jan-23 18:30N 22°20' E 114°08'  
Track history (hours):
 
Tides and Currents Weather Stations Pressure Air Temp Water Temp Dewpoint Dewpoint Depression Visibility Wind Speed Wind Dir Waves Ship Positions

Hatsu Envoy

Last reported at 2016-Feb-02 18:28 UTC. Time now 2016-Feb-10 17:50 UTC.
Position N 29°41' E 122°35'.

Type: Cargo ship. MMSI: 235414000.

Date/timePositionNaut miles runAvg speedWind from/ knotsBaromVisibWave heightAir tempDewpointWater temp
2016-Feb-02 18:28N 29°41' E 122°35'1111.5
2016-Feb-02 17:30N 29°43' E 122°23'1111.9
2016-Feb-02 16:33N 29°50' E 122°13'9 0.5
2016-Feb-01 23:28N 29°53' E 122°03'0 0.5
2016-Feb-01 22:33N 29°54' E 122°03'3 3.4
2016-Feb-01 21:33N 29°55' E 122°07'1211.7
2016-Feb-01 20:33N 29°47' E 122°16'9 8.5
2016-Feb-01 19:33N 29°44' E 122°26'5 4.5
2016-Feb-01 18:32N 29°43' E 122°31'0 0.3
2016-Feb-01 17:33N 29°43' E 122°31'1 1.4
2016-Feb-01 16:31N 29°42' E 122°31'7 1.2
2016-Feb-01 10:18N 29°44' E 122°39'0 0.5
2016-Feb-01 09:31N 29°44' E 122°39'5810.7
2016-Feb-01 04:06N 30°39' E 122°57'66 3.7
2016-Jan-31 10:10N 31°16' E 121°52'914.4
2016-Jan-31 09:32N 31°19' E 121°42'7 7.2
2016-Jan-31 08:33N 31°22' E 121°35'0 0.0
2016-Jan-31 07:28N 31°22' E 121°35'0 0.0
2016-Jan-31 06:31N 31°22' E 121°35'0 0.0
2016-Jan-31 05:31N 31°22' E 121°35'0 0.1
2016-Jan-31 04:28N 31°22' E 121°35'0 0.1
2016-Jan-31 03:28N 31°22' E 121°35'0 0.0
2016-Jan-31 02:28N 31°22' E 121°35'0 0.0
2016-Jan-31 01:25N 31°22' E 121°35'0 0.0
2016-Jan-31 00:31N 31°22' E 121°35'0 0.0
2016-Jan-30 23:31N 31°22' E 121°35'0 0.0
2016-Jan-30 22:22N 31°22' E 121°35'0 0.4
2016-Jan-30 21:33N 31°23' E 121°35'1 0.6
2016-Jan-30 20:33N 31°23' E 121°35'6 5.5
2016-Jan-30 19:34N 31°20' E 121°41'9 9.2
2016-Jan-30 18:33N 31°17' E 121°51'1110.5
2016-Jan-30 17:31N 31°14' E 122°03'  
2016-Jan-27 01:33N 22°47' E 119°60'1313.3
2016-Jan-27 00:33N 22°35' E 120°07'1111.3
2016-Jan-26 23:33N 22°33' E 120°19'0 0.2
2016-Jan-26 22:29N 22°33' E 120°19'0 0.0
2016-Jan-26 20:05N 22°33' E 120°19'0 0.0
2016-Jan-26 19:29N 22°33' E 120°19'0 0.0
2016-Jan-26 18:29N 22°33' E 120°19'0 0.0
2016-Jan-26 16:26N 22°33' E 120°19'0 0.0
2016-Jan-26 15:26N 22°33' E 120°19'0 0.0
2016-Jan-26 14:32N 22°33' E 120°19'0 0.0
2016-Jan-26 13:20N 22°33' E 120°19'0 0.0
2016-Jan-26 12:32N 22°33' E 120°19'0 0.0
2016-Jan-26 11:32N 22°33' E 120°19'0 0.0
2016-Jan-26 10:32N 22°33' E 120°19'0 0.2
2016-Jan-26 09:33N 22°33' E 120°19'6 6.5
2016-Jan-26 08:33N 22°31' E 120°12'1413.7
2016-Jan-26 07:34N 22°30' E 119°58'31514.7
2016-Jan-25 10:05N 22°34' E 114°16'0 0.0
2016-Jan-25 09:23N 22°34' E 114°16'0 0.0
2016-Jan-25 08:29N 22°34' E 114°16'0 0.0
2016-Jan-25 06:23N 22°34' E 114°16'0 0.0
2016-Jan-25 04:33N 22°34' E 114°16'0 0.0
2016-Jan-25 03:33N 22°34' E 114°16'0 0.0
2016-Jan-25 02:34N 22°34' E 114°16'0 0.0
2016-Jan-24 19:33N 22°34' E 114°16'0 0.0
2016-Jan-24 18:33N 22°34' E 114°16'0 0.0
2016-Jan-24 17:33N 22°34' E 114°16'0 0.0
2016-Jan-24 16:33N 22°34' E 114°16'1 0.5
2016-Jan-24 15:33N 22°34' E 114°17'14 6.0
2016-Jan-24 13:16N 22°26' E 114°29'14 1.4
2016-Jan-24 02:33N 22°12' E 114°28'10 9.6
2016-Jan-24 01:33N 22°06' E 114°20'11 9.2
2016-Jan-24 00:21N 22°12' E 114°10'8 9.5
2016-Jan-23 23:34N 22°18' E 114°06'2 2.3
2016-Jan-23 22:30N 22°20' E 114°08'0 0.0
2016-Jan-23 21:30N 22°20' E 114°08'0 0.0
2016-Jan-23 20:33N 22°20' E 114°08'0 0.0
2016-Jan-23 19:30N 22°20' E 114°08'0 0.0
2016-Jan-23 18:30N 22°20' E 114°08'  

Dump ship's entire track history